createdAt,value
2022-10-31T00:02:00.597Z,15.38
2022-10-31T00:03:00.661Z,15.38
2022-10-31T00:05:04.872Z,15.38
2022-10-31T00:06:04.430Z,15.29
2022-10-31T00:08:08.443Z,15.23
2022-10-31T00:09:08.459Z,15.21
2022-10-31T00:11:12.955Z,15.29
2022-10-31T00:12:12.501Z,15.20
2022-10-31T00:14:16.519Z,15.25
2022-10-31T00:15:16.529Z,15.13
2022-10-31T00:17:21.036Z,15.25
2022-10-31T00:18:20.586Z,15.20
2022-10-31T00:20:24.596Z,15.14
2022-10-31T00:21:24.616Z,15.13
2022-10-31T00:23:18.095Z,15.07
2022-10-31T00:24:17.576Z,15.09
2022-10-31T00:26:22.134Z,15.07
2022-10-31T00:27:22.097Z,14.95
2022-10-31T00:28:22.151Z,14.94
2022-10-31T00:29:22.141Z,14.95
2022-10-31T00:30:22.166Z,14.94
2022-10-31T00:31:22.195Z,14.99
2022-10-31T00:32:22.208Z,14.94
2022-10-31T00:33:22.234Z,14.96
2022-10-31T00:34:22.263Z,14.92
2022-10-31T00:35:22.283Z,14.81
2022-10-31T00:36:22.309Z,14.86
2022-10-31T00:37:22.335Z,14.88
2022-10-31T00:38:22.363Z,14.89
2022-10-31T00:39:22.389Z,14.92
2022-10-31T00:40:22.418Z,14.83
2022-10-31T00:41:22.436Z,14.75
2022-10-31T00:42:22.459Z,14.73
2022-10-31T00:43:22.485Z,14.65
2022-10-31T00:44:22.507Z,14.72
2022-10-31T00:45:22.535Z,14.64
2022-10-31T00:46:22.563Z,14.65
2022-10-31T00:47:22.587Z,14.68
2022-10-31T00:48:22.601Z,14.65
2022-10-31T00:49:22.632Z,14.58
2022-10-31T00:50:22.654Z,14.65
2022-10-31T00:51:22.701Z,14.55
2022-10-31T00:52:22.703Z,14.65
2022-10-31T00:53:22.726Z,14.62
2022-10-31T00:54:22.754Z,14.54
2022-10-31T00:55:22.781Z,14.55
2022-10-31T00:56:22.802Z,14.55
2022-10-31T00:57:22.824Z,14.58
2022-10-31T00:58:22.852Z,14.58
2022-10-31T00:59:22.874Z,14.62
2022-10-31T01:00:22.900Z,14.52
2022-10-31T01:01:23.090Z,14.61
2022-10-31T01:02:23.106Z,14.55
2022-10-31T01:03:22.973Z,14.60
2022-10-31T01:04:22.995Z,14.60
2022-10-31T01:05:23.030Z,14.57
2022-10-31T01:06:23.045Z,14.61
2022-10-31T01:07:23.070Z,14.52
2022-10-31T01:08:23.098Z,14.51
2022-10-31T01:09:23.116Z,14.50
2022-10-31T01:10:23.143Z,14.51
2022-10-31T01:11:23.171Z,14.52
2022-10-31T01:12:23.193Z,14.57
2022-10-31T01:13:23.221Z,14.51
2022-10-31T01:14:23.239Z,14.50
2022-10-31T01:15:23.265Z,14.45
2022-10-31T01:16:23.292Z,14.27
2022-10-31T01:17:23.318Z,14.46
2022-10-31T01:18:23.338Z,14.28
2022-10-31T01:19:23.362Z,14.24
2022-10-31T01:20:23.386Z,14.28
2022-10-31T01:21:23.407Z,14.28
2022-10-31T01:22:23.439Z,14.21
2022-10-31T01:23:23.460Z,14.10
2022-10-31T01:24:23.486Z,14.17
2022-10-31T01:25:23.513Z,14.07
2022-10-31T01:26:23.538Z,14.09
2022-10-31T01:27:23.561Z,14.09
2022-10-31T01:28:23.581Z,14.02
2022-10-31T01:29:23.610Z,14.04
2022-10-31T01:30:23.630Z,13.88
2022-10-31T01:31:23.659Z,13.95
2022-10-31T01:32:23.678Z,13.89
2022-10-31T01:33:23.705Z,13.82
2022-10-31T01:34:23.728Z,13.81
2022-10-31T01:35:23.773Z,13.79
2022-10-31T01:36:23.775Z,13.77
2022-10-31T01:37:23.798Z,13.77
2022-10-31T01:38:23.851Z,13.79
2022-10-31T01:39:23.846Z,13.75
2022-10-31T01:40:23.873Z,13.73
2022-10-31T01:41:23.891Z,13.77
2022-10-31T01:42:23.921Z,13.79
2022-10-31T01:43:23.951Z,13.71
2022-10-31T01:44:23.970Z,13.79
2022-10-31T01:45:23.986Z,13.66
2022-10-31T01:46:24.017Z,13.71
2022-10-31T01:47:24.036Z,13.60
2022-10-31T01:48:24.064Z,13.64
2022-10-31T01:49:24.085Z,13.62
2022-10-31T01:50:24.111Z,13.64
2022-10-31T01:51:24.137Z,13.69
2022-10-31T01:52:24.156Z,13.57
2022-10-31T01:53:26.831Z,13.55
2022-10-31T01:54:24.205Z,13.60
2022-10-31T01:55:26.380Z,13.55
2022-10-31T01:56:24.297Z,13.54
2022-10-31T01:57:24.273Z,13.49
2022-10-31T01:58:24.305Z,13.54
2022-10-31T01:59:24.321Z,13.48
2022-10-31T02:00:24.350Z,13.45
2022-10-31T02:01:24.570Z,13.44
2022-10-31T02:02:24.550Z,13.45
2022-10-31T02:03:24.422Z,13.33
2022-10-31T02:04:24.450Z,13.30
2022-10-31T02:05:24.470Z,13.38
2022-10-31T02:06:24.491Z,13.32
2022-10-31T02:07:24.516Z,13.39
2022-10-31T02:08:24.541Z,13.29
2022-10-31T02:09:24.559Z,13.32
2022-10-31T02:10:24.593Z,13.29
2022-10-31T02:11:24.612Z,13.28
2022-10-31T02:12:24.634Z,13.28
2022-10-31T02:14:24.683Z,13.25
2022-10-31T02:15:24.730Z,13.30
2022-10-31T02:16:24.731Z,13.28
2022-10-31T02:17:24.750Z,13.29
2022-10-31T02:18:24.779Z,13.25
2022-10-31T02:19:24.803Z,13.29
2022-10-31T02:20:24.824Z,13.25
2022-10-31T02:21:24.860Z,13.26
2022-10-31T02:22:24.879Z,13.29
2022-10-31T02:23:24.898Z,13.29
2022-10-31T02:24:24.920Z,13.30
2022-10-31T02:25:24.943Z,13.29
2022-10-31T02:26:24.966Z,13.41
2022-10-31T02:27:24.992Z,13.39
2022-10-31T02:28:25.018Z,13.45
2022-10-31T02:29:25.041Z,13.29
2022-10-31T02:30:25.069Z,13.39
2022-10-31T02:31:25.086Z,13.38
2022-10-31T02:32:25.113Z,13.30
2022-10-31T02:33:25.130Z,13.28
2022-10-31T02:34:25.189Z,13.19
2022-10-31T02:35:25.182Z,13.19
2022-10-31T02:36:25.218Z,13.20
2022-10-31T02:37:25.230Z,13.19
2022-10-31T02:38:25.252Z,13.17
2022-10-31T02:39:25.277Z,13.11
2022-10-31T02:40:25.295Z,13.05
2022-10-31T02:41:25.324Z,13.11
2022-10-31T02:42:25.362Z,13.03
2022-10-31T02:43:25.372Z,13.04
2022-10-31T02:44:25.392Z,13.03
2022-10-31T02:45:25.415Z,13.03
2022-10-31T02:46:25.449Z,13.03
2022-10-31T02:47:25.460Z,13.00
2022-10-31T02:48:25.488Z,13.08
2022-10-31T02:49:25.509Z,13.05
2022-10-31T02:50:25.538Z,13.10
2022-10-31T02:51:25.559Z,13.17
2022-10-31T02:52:25.584Z,13.25
2022-10-31T02:53:25.608Z,13.22
2022-10-31T02:54:25.634Z,13.20
2022-10-31T02:55:25.681Z,13.26
2022-10-31T02:56:25.679Z,13.28
2022-10-31T02:57:25.701Z,13.28
2022-10-31T02:58:25.728Z,13.33
2022-10-31T02:59:25.748Z,13.39
2022-10-31T03:00:25.793Z,13.36
2022-10-31T03:01:25.919Z,13.42
2022-10-31T03:02:25.935Z,13.49
2022-10-31T03:03:25.847Z,13.55
2022-10-31T03:04:25.871Z,13.59
2022-10-31T03:05:25.889Z,13.57
2022-10-31T03:06:25.916Z,13.54
2022-10-31T03:07:25.943Z,13.62
2022-10-31T03:08:25.982Z,13.70
2022-10-31T03:09:25.986Z,13.64
2022-10-31T03:10:26.013Z,13.63
2022-10-31T03:11:26.036Z,13.66
2022-10-31T03:12:26.061Z,13.59
2022-10-31T03:13:26.121Z,13.57
2022-10-31T03:14:26.110Z,13.52
2022-10-31T03:15:26.130Z,13.54
2022-10-31T03:16:26.151Z,13.51
2022-10-31T03:17:26.178Z,13.41
2022-10-31T03:18:26.202Z,13.44
2022-10-31T03:19:26.226Z,13.36
2022-10-31T03:20:26.251Z,13.36
2022-10-31T03:21:26.271Z,13.30
2022-10-31T03:22:26.299Z,13.30
2022-10-31T03:23:26.319Z,13.25
2022-10-31T03:24:26.351Z,13.28
2022-10-31T03:25:26.365Z,13.29
2022-10-31T03:26:26.390Z,13.25
2022-10-31T03:27:26.417Z,13.19
2022-10-31T03:28:26.441Z,13.25
2022-10-31T03:29:26.462Z,13.12
2022-10-31T03:30:26.485Z,13.11
2022-10-31T03:31:26.512Z,13.07
2022-10-31T03:32:26.529Z,12.93
2022-10-31T03:33:26.554Z,12.93
2022-10-31T03:34:26.580Z,12.97
2022-10-31T03:35:26.602Z,12.93
2022-10-31T03:36:26.626Z,12.93
2022-10-31T03:37:26.646Z,12.95
2022-10-31T03:38:26.675Z,12.90
2022-10-31T03:39:26.694Z,12.87
2022-10-31T03:40:26.738Z,12.90
2022-10-31T03:41:26.749Z,12.92
2022-10-31T03:42:26.767Z,12.83
2022-10-31T03:43:26.798Z,12.83
2022-10-31T03:44:26.810Z,12.74
2022-10-31T03:45:26.834Z,12.78
2022-10-31T03:46:26.855Z,12.78
2022-10-31T03:47:26.881Z,12.75
2022-10-31T03:48:26.904Z,12.82
2022-10-31T03:49:26.927Z,12.74
2022-10-31T03:50:26.950Z,12.75
2022-10-31T03:51:26.974Z,12.71
2022-10-31T03:52:27.000Z,12.68
2022-10-31T03:53:27.017Z,12.67
2022-10-31T03:54:27.039Z,12.64
2022-10-31T03:55:27.097Z,12.68
2022-10-31T03:56:27.092Z,12.65
2022-10-31T03:57:27.114Z,12.60
2022-10-31T03:58:27.139Z,12.65
2022-10-31T03:59:27.162Z,12.64
2022-10-31T04:00:27.185Z,12.67
2022-10-31T04:01:27.352Z,12.67
2022-10-31T04:02:27.315Z,12.52
2022-10-31T04:03:27.251Z,12.53
2022-10-31T04:04:27.277Z,12.54
2022-10-31T04:05:27.303Z,12.56
2022-10-31T04:06:27.338Z,12.52
2022-10-31T04:07:27.347Z,12.64
2022-10-31T04:08:27.368Z,12.54
2022-10-31T04:09:27.392Z,12.56
2022-10-31T04:10:31.919Z,12.54
2022-10-31T04:11:27.436Z,12.64
2022-10-31T04:12:27.461Z,12.54
2022-10-31T04:13:27.487Z,12.53
2022-10-31T04:14:27.510Z,12.47
2022-10-31T04:15:27.528Z,12.46
2022-10-31T04:16:27.557Z,12.45
2022-10-31T04:17:27.577Z,12.49
2022-10-31T04:18:27.612Z,12.45
2022-10-31T04:19:27.626Z,12.39
2022-10-31T04:20:27.648Z,12.47
2022-10-31T04:21:27.675Z,12.37
2022-10-31T04:22:27.691Z,12.28
2022-10-31T04:23:27.718Z,12.32
2022-10-31T04:24:27.744Z,12.31
2022-10-31T04:25:27.762Z,12.31
2022-10-31T04:26:27.800Z,12.32
2022-10-31T04:27:27.804Z,12.29
2022-10-31T04:28:27.835Z,12.34
2022-10-31T04:29:27.855Z,12.29
2022-10-31T04:30:27.879Z,12.31
2022-10-31T04:31:27.901Z,12.32
2022-10-31T04:32:27.928Z,12.32
2022-10-31T04:33:27.945Z,12.31
2022-10-31T04:34:27.972Z,12.13
2022-10-31T04:35:27.995Z,12.14
2022-10-31T04:36:28.018Z,12.09
2022-10-31T04:37:28.039Z,12.16
2022-10-31T04:38:28.060Z,12.02
2022-10-31T04:39:28.086Z,12.07
2022-10-31T04:40:28.107Z,12.09
2022-10-31T04:41:28.132Z,12.02
2022-10-31T04:42:28.153Z,12.12
2022-10-31T04:43:28.183Z,12.04
2022-10-31T04:44:28.201Z,12.04
2022-10-31T04:45:28.221Z,11.99
2022-10-31T04:46:28.245Z,12.01
2022-10-31T04:47:28.268Z,12.10
2022-10-31T04:48:28.291Z,12.12
2022-10-31T04:49:28.311Z,12.13
2022-10-31T04:50:28.338Z,12.04
2022-10-31T04:51:28.359Z,12.05
2022-10-31T04:52:28.380Z,12.04
2022-10-31T04:53:28.403Z,12.02
2022-10-31T04:54:28.428Z,12.01
2022-10-31T04:55:28.452Z,12.07
2022-10-31T04:56:28.480Z,12.07
2022-10-31T04:57:28.502Z,12.09
2022-10-31T04:58:28.521Z,12.04
2022-10-31T04:59:28.544Z,11.99
2022-10-31T05:00:28.569Z,12.01
2022-10-31T05:01:28.729Z,11.95
2022-10-31T05:02:28.729Z,11.85
2022-10-31T05:03:28.645Z,11.88
2022-10-31T05:04:28.665Z,11.91
2022-10-31T05:05:28.679Z,11.88
2022-10-31T05:06:28.703Z,11.85
2022-10-31T05:07:28.727Z,11.88
2022-10-31T05:08:28.750Z,11.85
2022-10-31T05:09:28.775Z,11.85
2022-10-31T05:10:28.797Z,11.88
2022-10-31T05:11:28.815Z,11.85
2022-10-31T05:12:28.838Z,11.85
2022-10-31T05:13:28.870Z,11.82
2022-10-31T05:14:28.889Z,11.82
2022-10-31T05:15:28.909Z,11.72
2022-10-31T05:16:28.933Z,11.72
2022-10-31T05:17:28.956Z,11.70
2022-10-31T05:18:28.979Z,11.82
2022-10-31T05:19:28.997Z,11.73
2022-10-31T05:20:29.023Z,11.79
2022-10-31T05:21:29.047Z,11.76
2022-10-31T05:22:29.065Z,11.78
2022-10-31T05:23:29.090Z,11.70
2022-10-31T05:24:29.110Z,11.76
2022-10-31T05:25:29.137Z,11.70
2022-10-31T05:26:29.160Z,11.64
2022-10-31T05:27:29.179Z,11.54
2022-10-31T05:28:29.202Z,11.52
2022-10-31T05:29:29.233Z,11.47
2022-10-31T05:30:29.251Z,11.46
2022-10-31T05:31:29.275Z,11.44
2022-10-31T05:32:29.290Z,11.47
2022-10-31T05:33:29.321Z,11.55
2022-10-31T05:34:29.340Z,11.46
2022-10-31T05:35:29.365Z,11.37
2022-10-31T05:36:29.385Z,11.47
2022-10-31T05:37:29.406Z,11.47
2022-10-31T05:38:29.426Z,11.43
2022-10-31T05:39:29.458Z,11.39
2022-10-31T05:40:29.479Z,11.43
2022-10-31T05:41:29.499Z,11.42
2022-10-31T05:42:29.523Z,11.43
2022-10-31T05:43:29.551Z,11.46
2022-10-31T05:44:29.563Z,11.42
2022-10-31T05:45:29.587Z,11.44
2022-10-31T05:46:29.697Z,11.49
2022-10-31T05:47:29.636Z,11.40
2022-10-31T05:48:29.662Z,11.40
2022-10-31T05:49:29.679Z,11.40
2022-10-31T05:50:29.710Z,11.49
2022-10-31T05:51:29.724Z,11.49
2022-10-31T05:52:29.744Z,11.60
2022-10-31T05:53:29.783Z,11.57
2022-10-31T05:54:29.789Z,11.60
2022-10-31T05:55:29.819Z,11.64
2022-10-31T05:56:29.838Z,11.57
2022-10-31T05:57:29.861Z,11.57
2022-10-31T05:58:29.884Z,11.52
2022-10-31T05:59:29.904Z,11.44
2022-10-31T06:00:29.929Z,11.49
2022-10-31T06:01:29.985Z,11.54
2022-10-31T06:02:29.977Z,11.57
2022-10-31T06:03:29.995Z,11.60
2022-10-31T06:04:30.047Z,11.60
2022-10-31T06:05:30.043Z,11.61
2022-10-31T06:06:30.094Z,11.61
2022-10-31T06:07:30.086Z,11.62
2022-10-31T06:08:30.109Z,11.64
2022-10-31T06:09:30.133Z,11.58
2022-10-31T06:10:30.157Z,11.64
2022-10-31T06:11:30.176Z,11.58
2022-10-31T06:12:30.862Z,11.60
2022-10-31T06:13:30.225Z,11.58
2022-10-31T06:14:30.242Z,11.58
2022-10-31T06:15:30.270Z,11.61
2022-10-31T06:16:30.288Z,11.64
2022-10-31T06:17:30.311Z,11.64
2022-10-31T06:18:30.334Z,11.64
2022-10-31T06:19:30.357Z,11.67
2022-10-31T06:20:30.378Z,11.60
2022-10-31T06:21:30.409Z,11.60
2022-10-31T06:22:30.437Z,11.64
2022-10-31T06:23:30.451Z,11.60
2022-10-31T06:24:30.470Z,11.57
2022-10-31T06:25:30.494Z,11.51
2022-10-31T06:26:30.521Z,11.49
2022-10-31T06:27:30.557Z,11.52
2022-10-31T06:28:30.561Z,11.52
2022-10-31T06:29:30.584Z,11.61
2022-10-31T06:30:30.607Z,11.55
2022-10-31T06:31:30.632Z,11.61
2022-10-31T06:32:30.652Z,11.54
2022-10-31T06:33:30.670Z,11.44
2022-10-31T06:34:30.696Z,11.46
2022-10-31T06:35:30.719Z,11.46
2022-10-31T06:36:30.752Z,11.47
2022-10-31T06:37:30.767Z,11.43
2022-10-31T06:38:30.787Z,11.44
2022-10-31T06:39:30.809Z,11.46
2022-10-31T06:40:30.832Z,11.46
2022-10-31T06:41:30.854Z,11.51
2022-10-31T06:42:30.888Z,11.47
2022-10-31T06:43:30.897Z,11.47
2022-10-31T06:44:30.921Z,11.49
2022-10-31T06:45:30.948Z,11.47
2022-10-31T06:46:30.964Z,11.51
2022-10-31T06:47:31.013Z,11.51
2022-10-31T06:48:31.013Z,11.44
2022-10-31T06:49:31.032Z,11.44
2022-10-31T06:50:31.061Z,11.51
2022-10-31T06:51:31.078Z,11.49
2022-10-31T06:52:31.110Z,11.60
2022-10-31T06:53:31.127Z,11.64
2022-10-31T06:54:31.148Z,11.75
2022-10-31T06:55:31.170Z,11.75
2022-10-31T06:56:31.193Z,11.72
2022-10-31T06:57:31.217Z,11.78
2022-10-31T06:58:31.237Z,11.86
2022-10-31T06:59:31.264Z,11.88
2022-10-31T07:00:31.286Z,11.95
2022-10-31T07:01:31.395Z,11.94
2022-10-31T07:02:31.404Z,11.90
2022-10-31T07:03:31.349Z,11.99
2022-10-31T07:04:31.393Z,11.98
2022-10-31T07:05:31.397Z,11.96
2022-10-31T07:06:31.420Z,12.13
2022-10-31T07:07:31.441Z,12.05
2022-10-31T07:08:31.469Z,12.12
2022-10-31T07:09:31.488Z,12.12
2022-10-31T07:10:34.323Z,12.16
2022-10-31T07:11:31.536Z,12.12
2022-10-31T07:12:31.557Z,12.07
2022-10-31T07:13:31.583Z,12.24
2022-10-31T07:14:38.774Z,12.21
2022-10-31T07:16:36.105Z,12.32
2022-10-31T07:17:35.631Z,12.32
2022-10-31T07:19:39.647Z,12.42
2022-10-31T07:20:39.664Z,12.47
2022-10-31T07:22:48.171Z,12.60
2022-10-31T07:23:43.676Z,12.67
2022-10-31T07:25:48.188Z,12.83
2022-10-31T07:26:48.225Z,12.89
2022-10-31T07:27:48.217Z,12.93
2022-10-31T07:28:48.243Z,12.85
2022-10-31T07:29:48.267Z,13.04
2022-10-31T07:30:48.295Z,13.12
2022-10-31T07:31:48.316Z,13.17
2022-10-31T07:32:48.549Z,13.15
2022-10-31T07:33:48.370Z,13.19
2022-10-31T07:34:48.381Z,13.19
2022-10-31T07:35:48.407Z,13.29
2022-10-31T07:36:48.435Z,13.36
2022-10-31T07:37:48.453Z,13.29
2022-10-31T07:38:48.479Z,13.46
2022-10-31T07:39:48.503Z,13.48
2022-10-31T07:40:48.523Z,13.57
2022-10-31T07:41:48.548Z,13.66
2022-10-31T07:42:48.569Z,13.60
2022-10-31T07:43:48.637Z,13.60
2022-10-31T07:44:50.550Z,13.75
2022-10-31T07:45:48.645Z,13.78
2022-10-31T07:46:48.669Z,13.78
2022-10-31T07:47:48.691Z,13.78
2022-10-31T07:48:48.713Z,13.89
2022-10-31T07:49:48.740Z,13.89
2022-10-31T07:50:48.762Z,13.92
2022-10-31T07:51:48.784Z,14.02
2022-10-31T07:52:48.810Z,14.02
2022-10-31T07:53:48.835Z,13.99
2022-10-31T07:54:48.857Z,13.88
2022-10-31T07:55:48.878Z,14.02
2022-10-31T07:56:48.902Z,14.09
2022-10-31T07:57:48.931Z,14.09
2022-10-31T07:58:48.951Z,14.15
2022-10-31T07:59:48.978Z,14.15
2022-10-31T08:00:49.256Z,14.22
2022-10-31T08:01:49.023Z,14.15
2022-10-31T08:02:49.052Z,14.15
2022-10-31T08:03:49.069Z,14.12
2022-10-31T08:04:49.100Z,14.21
2022-10-31T08:05:49.123Z,14.14
2022-10-31T08:06:49.143Z,14.00
2022-10-31T08:07:49.171Z,13.99
2022-10-31T08:08:49.194Z,13.99
2022-10-31T08:09:49.221Z,14.07
2022-10-31T08:10:49.245Z,14.04
2022-10-31T08:11:49.266Z,14.09
2022-10-31T08:12:49.290Z,14.03
2022-10-31T08:13:49.316Z,14.07
2022-10-31T08:14:49.337Z,14.14
2022-10-31T08:15:49.361Z,14.14
2022-10-31T08:16:49.390Z,14.27
2022-10-31T08:17:49.407Z,14.15
2022-10-31T08:18:49.434Z,14.20
2022-10-31T08:19:49.453Z,14.28
2022-10-31T08:20:49.478Z,14.28
2022-10-31T08:21:49.501Z,14.18
2022-10-31T08:22:49.534Z,14.24
2022-10-31T08:23:49.556Z,14.29
2022-10-31T08:24:49.593Z,14.27
2022-10-31T08:25:49.603Z,14.27
2022-10-31T08:26:49.626Z,14.43
2022-10-31T08:27:49.653Z,14.36
2022-10-31T08:28:49.672Z,14.29
2022-10-31T08:29:49.701Z,14.36
2022-10-31T08:30:49.723Z,14.32
2022-10-31T08:31:49.747Z,14.29
2022-10-31T08:32:49.768Z,14.42
2022-10-31T08:33:49.795Z,14.35
2022-10-31T08:34:49.817Z,14.45
2022-10-31T08:35:49.841Z,14.46
2022-10-31T08:36:49.867Z,14.50
2022-10-31T08:37:49.897Z,14.51
2022-10-31T08:38:49.917Z,14.60
2022-10-31T08:39:49.938Z,14.60
2022-10-31T08:40:49.980Z,14.55
2022-10-31T08:41:49.989Z,14.62
2022-10-31T08:42:50.009Z,14.60
2022-10-31T08:43:50.039Z,14.60
2022-10-31T08:44:50.066Z,14.61
2022-10-31T08:45:50.098Z,14.64
2022-10-31T08:46:50.105Z,14.55
2022-10-31T08:47:50.134Z,14.55
2022-10-31T08:48:50.159Z,14.61
2022-10-31T08:49:50.182Z,14.55
2022-10-31T08:50:50.211Z,14.61
2022-10-31T08:51:50.229Z,14.57
2022-10-31T08:53:04.822Z,14.51
2022-10-31T08:53:50.278Z,14.57
2022-10-31T08:54:50.299Z,14.72
2022-10-31T08:55:50.332Z,14.69
2022-10-31T08:56:50.347Z,14.65
2022-10-31T08:57:50.370Z,14.73
2022-10-31T08:58:50.400Z,14.83
2022-10-31T08:59:50.418Z,14.95
2022-10-31T09:00:50.526Z,14.98
2022-10-31T09:01:50.602Z,14.95
2022-10-31T09:02:50.495Z,15.06
2022-10-31T09:03:50.516Z,14.94
2022-10-31T09:04:50.544Z,15.06
2022-10-31T09:05:50.613Z,15.09
2022-10-31T09:07:19.581Z,15.16
2022-10-31T09:07:50.633Z,15.20
2022-10-31T09:08:50.638Z,15.16
2022-10-31T09:09:50.668Z,15.25
2022-10-31T09:10:50.689Z,15.25
2022-10-31T09:11:50.712Z,15.21
2022-10-31T09:12:50.734Z,15.36
2022-10-31T09:13:50.763Z,15.46
2022-10-31T09:14:50.788Z,15.35
2022-10-31T09:15:50.810Z,15.50
2022-10-31T09:16:50.834Z,15.51
2022-10-31T09:17:50.865Z,15.43
2022-10-31T09:18:50.887Z,15.43
2022-10-31T09:19:50.908Z,15.54
2022-10-31T09:20:50.934Z,15.60
2022-10-31T09:21:50.957Z,15.59
2022-10-31T09:22:50.983Z,15.60
2022-10-31T09:23:51.011Z,15.68
2022-10-31T09:24:51.027Z,15.78
2022-10-31T09:25:51.223Z,15.71
2022-10-31T09:26:51.084Z,15.78
2022-10-31T09:27:51.167Z,15.84
2022-10-31T09:28:51.135Z,15.90
2022-10-31T09:29:51.159Z,15.97
2022-10-31T09:30:51.182Z,16.04
2022-10-31T09:31:51.210Z,16.07
2022-10-31T09:32:51.231Z,16.02
2022-10-31T09:33:51.260Z,16.11
2022-10-31T09:34:51.279Z,16.01
2022-10-31T09:35:51.306Z,16.09
2022-10-31T09:36:51.329Z,16.11
2022-10-31T09:37:51.455Z,16.12
2022-10-31T09:38:51.381Z,16.24
2022-10-31T09:39:51.403Z,16.12
2022-10-31T09:40:51.431Z,16.34
2022-10-31T09:41:56.154Z,16.48
2022-10-31T09:42:51.487Z,16.48
2022-10-31T09:43:51.507Z,16.52
2022-10-31T09:44:51.528Z,16.66
2022-10-31T09:45:51.561Z,16.61
2022-10-31T09:46:51.586Z,16.64
2022-10-31T09:47:51.659Z,16.81
2022-10-31T09:48:51.628Z,16.88
2022-10-31T09:49:51.784Z,16.83
2022-10-31T09:50:51.682Z,17.04
2022-10-31T09:51:53.113Z,17.04
2022-10-31T09:52:51.737Z,17.03
2022-10-31T09:53:51.765Z,17.07
2022-10-31T09:54:51.788Z,17.06
2022-10-31T09:55:51.812Z,16.98
2022-10-31T09:56:51.840Z,17.04
2022-10-31T09:57:51.870Z,17.04
2022-10-31T09:58:51.890Z,17.14
2022-10-31T09:59:51.915Z,17.03
2022-10-31T10:00:52.005Z,17.01
2022-10-31T10:01:52.163Z,16.97
2022-10-31T10:02:52.001Z,17.06
2022-10-31T10:03:52.016Z,17.07
2022-10-31T10:04:52.040Z,17.16
2022-10-31T10:05:52.075Z,17.12
2022-10-31T10:06:52.097Z,17.18
2022-10-31T10:07:52.123Z,17.11
2022-10-31T10:08:52.149Z,17.04
2022-10-31T10:09:52.173Z,17.11
2022-10-31T10:10:52.198Z,17.12
2022-10-31T10:11:52.225Z,17.11
2022-10-31T10:12:52.249Z,17.15
2022-10-31T10:13:52.278Z,17.19
2022-10-31T10:14:52.305Z,17.31
2022-10-31T10:15:52.323Z,17.33
2022-10-31T10:16:52.349Z,17.46
2022-10-31T10:17:52.378Z,17.49
2022-10-31T10:18:52.408Z,17.43
2022-10-31T10:19:52.432Z,17.63
2022-10-31T10:20:52.459Z,17.66
2022-10-31T10:21:52.489Z,17.75
2022-10-31T10:22:52.509Z,17.72
2022-10-31T10:23:52.534Z,17.81
2022-10-31T10:24:52.562Z,17.84
2022-10-31T10:25:52.590Z,17.90
2022-10-31T10:26:52.620Z,17.97
2022-10-31T10:27:52.640Z,18.00
2022-10-31T10:28:52.667Z,17.93
2022-10-31T10:29:52.690Z,18.08
2022-10-31T10:30:52.721Z,18.10
2022-10-31T10:31:52.746Z,18.11
2022-10-31T10:32:52.776Z,18.27
2022-10-31T10:33:52.794Z,18.30
2022-10-31T10:34:52.832Z,18.36
2022-10-31T10:35:52.852Z,18.51
2022-10-31T10:36:52.877Z,18.50
2022-10-31T10:37:52.908Z,18.51
2022-10-31T10:38:52.932Z,18.57
2022-10-31T10:39:52.959Z,18.51
2022-10-31T10:40:52.988Z,18.52
2022-10-31T10:41:53.013Z,18.48
2022-10-31T10:42:53.037Z,18.58
2022-10-31T10:43:53.068Z,18.62
2022-10-31T10:44:53.092Z,18.72
2022-10-31T10:45:53.118Z,18.76
2022-10-31T10:46:53.146Z,18.70
2022-10-31T10:47:53.180Z,18.81
2022-10-31T10:48:53.204Z,18.85
2022-10-31T10:49:53.227Z,18.80
2022-10-31T10:50:53.254Z,18.95
2022-10-31T10:52:07.617Z,18.95
2022-10-31T10:52:53.305Z,18.91
2022-10-31T10:53:53.337Z,18.95
2022-10-31T10:54:53.366Z,18.98
2022-10-31T10:55:53.390Z,19.06
2022-10-31T10:56:53.416Z,19.11
2022-10-31T10:57:53.454Z,19.18
2022-10-31T10:58:53.470Z,19.23
2022-10-31T10:59:53.493Z,19.26
2022-10-31T11:00:53.645Z,19.29
2022-10-31T11:01:53.554Z,19.26
2022-10-31T11:02:53.581Z,19.28
2022-10-31T11:03:53.608Z,19.31
2022-10-31T11:04:53.635Z,19.32
2022-10-31T11:05:53.660Z,19.33
2022-10-31T11:06:53.690Z,19.39
2022-10-31T11:07:53.727Z,19.37
2022-10-31T11:08:53.752Z,19.46
2022-10-31T11:09:53.775Z,19.46
2022-10-31T11:10:53.801Z,19.44
2022-10-31T11:11:53.822Z,19.51
2022-10-31T11:12:53.852Z,19.51
2022-10-31T11:13:53.879Z,19.51
2022-10-31T11:14:53.909Z,19.56
2022-10-31T11:15:53.937Z,19.56
2022-10-31T11:16:53.963Z,19.62
2022-10-31T11:17:53.990Z,19.63
2022-10-31T11:18:54.021Z,19.58
2022-10-31T11:19:54.048Z,19.68
2022-10-31T11:20:54.072Z,19.73
2022-10-31T11:21:54.481Z,19.71
2022-10-31T11:22:54.192Z,19.69
2022-10-31T11:23:54.157Z,19.74
2022-10-31T11:24:54.183Z,19.76
2022-10-31T11:25:54.212Z,19.68
2022-10-31T11:26:54.240Z,19.68
2022-10-31T11:27:54.263Z,19.74
2022-10-31T11:28:54.293Z,19.66
2022-10-31T11:29:58.289Z,19.73
2022-10-31T11:30:54.352Z,19.61
2022-10-31T11:31:54.378Z,19.65
2022-10-31T11:32:54.405Z,19.62
2022-10-31T11:33:54.434Z,19.59
2022-10-31T11:34:54.464Z,19.69
2022-10-31T11:35:57.859Z,19.71
2022-10-31T11:36:54.516Z,19.65
2022-10-31T11:37:54.543Z,19.65
2022-10-31T11:38:54.573Z,19.68
2022-10-31T11:39:54.624Z,19.69
2022-10-31T11:40:54.622Z,19.71
2022-10-31T11:41:54.655Z,19.77
2022-10-31T11:42:54.679Z,19.87
2022-10-31T11:43:54.709Z,19.83
2022-10-31T11:44:54.731Z,19.84
2022-10-31T11:45:54.762Z,19.92
2022-10-31T11:46:54.797Z,19.88
2022-10-31T11:47:59.157Z,19.86
2022-10-31T11:48:54.849Z,19.94
2022-10-31T11:49:54.876Z,20.02
2022-10-31T11:50:54.901Z,20.03
2022-10-31T11:51:54.931Z,19.98
2022-10-31T11:53:58.207Z,20.08
2022-10-31T11:54:55.013Z,20.05
2022-10-31T11:55:55.042Z,20.02
2022-10-31T11:56:55.071Z,20.01
2022-10-31T11:57:55.101Z,20.10
2022-10-31T11:58:55.129Z,20.06
2022-10-31T11:59:55.157Z,20.13
2022-10-31T12:00:55.187Z,20.10
2022-10-31T12:01:55.359Z,20.18
2022-10-31T12:02:55.303Z,20.13
2022-10-31T12:03:55.273Z,19.99
2022-10-31T12:04:55.301Z,20.03
2022-10-31T12:05:55.322Z,20.03
2022-10-31T12:06:55.352Z,19.96
2022-10-31T12:07:58.161Z,19.96
2022-10-31T12:08:55.407Z,19.99
2022-10-31T12:09:55.432Z,19.99
2022-10-31T12:10:55.464Z,20.11
2022-10-31T12:11:55.492Z,20.14
2022-10-31T12:12:55.517Z,20.11
2022-10-31T12:13:59.805Z,20.20
2022-10-31T12:14:55.574Z,20.23
2022-10-31T12:15:55.605Z,20.33
2022-10-31T12:16:55.632Z,20.31
2022-10-31T12:17:55.741Z,20.26
2022-10-31T12:18:55.693Z,20.29
2022-10-31T12:19:56.328Z,20.33
2022-10-31T12:20:55.743Z,20.47
2022-10-31T12:21:55.773Z,20.51
2022-10-31T12:22:55.802Z,20.54
2022-10-31T12:23:55.827Z,20.59
2022-10-31T12:24:55.858Z,20.58
2022-10-31T12:25:55.886Z,20.54
2022-10-31T12:26:55.926Z,20.74
2022-10-31T12:27:55.945Z,20.57
2022-10-31T12:28:55.970Z,20.69
2022-10-31T12:29:55.999Z,20.72
2022-10-31T12:30:56.029Z,20.70
2022-10-31T12:31:56.058Z,20.72
2022-10-31T12:32:56.078Z,20.67
2022-10-31T12:33:56.114Z,20.52
2022-10-31T12:34:56.139Z,20.55
2022-10-31T12:35:56.170Z,20.42
2022-10-31T12:36:56.204Z,20.42
2022-10-31T12:37:56.231Z,20.39
2022-10-31T12:38:56.257Z,20.39
2022-10-31T12:39:56.282Z,20.48
2022-10-31T12:40:56.310Z,20.42
2022-10-31T12:41:56.342Z,20.39
2022-10-31T12:42:56.371Z,20.51
2022-10-31T12:43:56.439Z,20.41
2022-10-31T12:44:56.427Z,20.38
2022-10-31T12:45:56.452Z,20.36
2022-10-31T12:46:56.480Z,20.31
2022-10-31T12:47:56.508Z,20.29
2022-10-31T12:48:57.398Z,20.28
2022-10-31T12:49:56.563Z,20.26
2022-10-31T12:50:56.589Z,20.16
2022-10-31T12:51:56.647Z,20.16
2022-10-31T12:52:56.648Z,20.16
2022-10-31T12:53:56.677Z,20.16
2022-10-31T12:54:56.701Z,20.26
2022-10-31T12:55:56.732Z,20.16
2022-10-31T12:56:56.759Z,20.23
2022-10-31T12:57:56.803Z,20.29
2022-10-31T12:58:56.814Z,20.18
2022-10-31T12:59:56.841Z,20.20
2022-10-31T13:00:56.952Z,20.14
2022-10-31T13:01:57.057Z,20.16
2022-10-31T13:02:56.927Z,20.18
2022-10-31T13:03:56.954Z,20.14
2022-10-31T13:04:56.990Z,20.23
2022-10-31T13:05:57.009Z,20.23
2022-10-31T13:06:57.040Z,20.26
2022-10-31T13:07:57.075Z,20.28
2022-10-31T13:08:57.117Z,20.26